Time;durP1;ratioP1;P1;durP2;ratioP2;P2;SDS_P1;SDS_P2;PMS_P1;PMS_P2;Temp;Humidity;BMP_temperature;BMP_pressure;BME280_temperature;BME280_humidity;BME280_pressure;Samples;Min_cycle;Max_cycle;Signal;HPM_P1;HPM_P2
2022/02/27 00:01:04;;;;;;;3.63;2.92;;;;;;;;;;5069250;28;20390;-75
2022/02/27 00:03:30;;;;;;;0.85;0.82;;;;;;;;;;5060731;28;20033;-75
2022/02/27 00:05:56;;;;;;;3.40;2.20;;;;;;;;;;5053713;28;20034;-75
2022/02/27 00:08:22;;;;;;;1.58;1.48;;;;;;;;;;5054431;28;20101;-76
2022/02/27 00:10:48;;;;;;;0.85;0.82;;;;;;;;;;5058554;28;20021;-76
2022/02/27 00:13:14;;;;;;;2.67;1.85;;;;;;;;;;5068165;28;20055;-75
2022/02/27 00:15:40;;;;;;;1.45;0.82;;;;;;;;;;5063735;28;20115;-75
2022/02/27 00:18:06;;;;;;;4.47;2.22;;;;;;;;;;5068952;28;20479;-75
2022/02/27 00:20:32;;;;;;;1.15;0.73;;;;;;;;;;5056470;28;20036;-75
2022/02/27 00:22:58;;;;;;;0.50;0.50;;;;;;;;;;5052432;28;20447;-75
2022/02/27 00:25:24;;;;;;;1.23;0.77;;;;;;;;;;5064169;28;20063;-74
2022/02/27 00:27:50;;;;;;;9.75;3.17;;;;;;;;;;5068985;28;20082;-75
2022/02/27 00:30:16;;;;;;;2.55;2.28;;;;;;;;;;5055708;28;20542;-74
2022/02/27 00:32:42;;;;;;;1.95;1.67;;;;;;;;;;5067679;28;20024;-75
2022/02/27 00:35:08;;;;;;;0.80;0.80;;;;;;;;;;5066038;28;20036;-75
2022/02/27 00:37:34;;;;;;;0.30;0.30;;;;;;;;;;5056791;28;20036;-75
2022/02/27 00:40:00;;;;;;;0.85;0.85;;;;;;;;;;5063465;28;20043;-75
2022/02/27 00:42:26;;;;;;;0.73;0.73;;;;;;;;;;5050992;28;20451;-75
2022/02/27 00:44:52;;;;;;;4.80;2.55;;;;;;;;;;5048630;28;20383;-75
2022/02/27 00:47:18;;;;;;;1.38;1.27;;;;;;;;;;5071741;28;20021;-75
2022/02/27 00:49:44;;;;;;;0.22;0.22;;;;;;;;;;5067184;28;20075;-75
2022/02/27 00:52:10;;;;;;;0.57;0.57;;;;;;;;;;5069427;28;20043;-75
2022/02/27 00:54:36;;;;;;;0.95;0.93;;;;;;;;;;5070877;28;20056;-75
2022/02/27 00:57:01;;;;;;;0.47;0.38;;;;;;;;;;5061877;28;20105;-75
2022/02/27 00:59:27;;;;;;;0.63;0.63;;;;;;;;;;5069773;28;20036;-75
2022/02/27 01:07:08;;;;;;;1.38;1.27;;;;;;;;;;5180967;22;20514;-75
2022/02/27 01:09:37;;;;;;;0.55;0.55;;;;;;;;;;5017096;28;20029;-76
2022/02/27 01:12:04;;;;;;;1.17;0.95;;;;;;;;;;5029911;28;20029;-76
2022/02/27 01:14:30;;;;;;;0.45;0.45;;;;;;;;;;5030645;28;20672;-75
2022/02/27 01:16:59;;;;;;;0.52;0.52;;;;;;;;;;5028214;28;20091;-75
2022/02/27 01:19:25;;;;;;;0.20;0.20;;;;;;;;;;5028772;28;20037;-75
2022/02/27 01:21:51;;;;;;;0.15;0.15;;;;;;;;;;5027021;28;20047;-74
2022/02/27 01:24:17;;;;;;;6.60;1.45;;;;;;;;;;5030344;28;20498;-75
2022/02/27 01:26:42;;;;;;;1.90;1.10;;;;;;;;;;5028409;28;20022;-75
2022/02/27 01:29:08;;;;;;;0.55;0.55;;;;;;;;;;5029012;28;20040;-75
2022/02/27 01:31:34;;;;;;;5.28;2.03;;;;;;;;;;5028572;28;20473;-74
2022/02/27 01:34:00;;;;;;;3.72;1.92;;;;;;;;;;5029572;28;20472;-74
2022/02/27 01:36:26;;;;;;;0.88;0.40;;;;;;;;;;5029892;28;20036;-74
2022/02/27 01:38:52;;;;;;;0.52;0.52;;;;;;;;;;5028213;28;20041;-75
2022/02/27 01:41:19;;;;;;;0.70;0.45;;;;;;;;;;5029269;28;20471;-74
2022/02/27 01:43:44;;;;;;;0.10;0.10;;;;;;;;;;5030556;28;20033;-75
2022/02/27 01:46:10;;;;;;;0.55;0.47;;;;;;;;;;5030053;28;20025;-75
2022/02/27 01:48:38;;;;;;;0.20;0.20;;;;;;;;;;5026328;28;20033;-75
2022/02/27 01:51:04;;;;;;;0.88;0.85;;;;;;;;;;5029174;28;20029;-75
2022/02/27 01:53:30;;;;;;;0.82;0.82;;;;;;;;;;5028674;28;20036;-74
2022/02/27 01:55:56;;;;;;;1.33;0.55;;;;;;;;;;5028031;28;20391;-74
2022/02/27 01:58:22;;;;;;;1.00;0.95;;;;;;;;;;5029949;28;20112;-74
2022/02/27 02:00:48;;;;;;;2.50;1.55;;;;;;;;;;5027452;28;20025;-75
2022/02/27 02:03:14;;;;;;;0.70;0.60;;;;;;;;;;5029671;28;20690;-75
2022/02/27 02:05:40;;;;;;;2.72;1.50;;;;;;;;;;5028140;28;20173;-75
2022/02/27 02:08:05;;;;;;;1.65;0.85;;;;;;;;;;5023635;28;20395;-75
2022/02/27 02:10:32;;;;;;;1.00;0.95;;;;;;;;;;5022998;28;20032;-75
2022/02/27 02:12:58;;;;;;;0.55;0.55;;;;;;;;;;5026880;28;20033;-75
2022/02/27 02:15:24;;;;;;;1.20;0.55;;;;;;;;;;5024354;28;20038;-75
2022/02/27 02:17:50;;;;;;;0.85;0.82;;;;;;;;;;5024818;28;20391;-75
2022/02/27 02:20:16;;;;;;;3.30;1.98;;;;;;;;;;5027803;28;20285;-75
2022/02/27 02:22:42;;;;;;;7.45;2.47;;;;;;;;;;5026114;28;20067;-75
2022/02/27 02:25:08;;;;;;;0.45;0.45;;;;;;;;;;5028086;28;20469;-75
2022/02/27 02:27:34;;;;;;;1.55;1.45;;;;;;;;;;5021658;28;20044;-75
2022/02/27 02:30:00;;;;;;;1.27;1.25;;;;;;;;;;5018910;28;20594;-75
2022/02/27 02:32:26;;;;;;;1.67;1.58;;;;;;;;;;5014171;28;20395;-75
2022/02/27 02:34:53;;;;;;;0.30;0.30;;;;;;;;;;5020298;28;20033;-75
2022/02/27 02:37:18;;;;;;;5.15;2.25;;;;;;;;;;5019360;28;20035;-75
2022/02/27 02:39:44;;;;;;;1.92;1.83;;;;;;;;;;5021275;28;20033;-75
2022/02/27 02:42:10;;;;;;;4.28;1.38;;;;;;;;;;5014856;28;20136;-75
2022/02/27 02:44:38;;;;;;;2.08;1.35;;;;;;;;;;5019637;28;20466;-75
2022/02/27 02:47:04;;;;;;;2.92;2.70;;;;;;;;;;5013762;28;20064;-75
2022/02/27 02:49:30;;;;;;;1.80;1.35;;;;;;;;;;5021287;28;20049;-75
2022/02/27 02:51:56;;;;;;;6.80;3.60;;;;;;;;;;5018572;28;20650;-75
2022/02/27 02:54:22;;;;;;;2.38;2.05;;;;;;;;;;5025100;28;20041;-75
2022/02/27 02:56:48;;;;;;;0.60;0.60;;;;;;;;;;5024485;28;20391;-75
2022/02/27 02:59:14;;;;;;;10.93;3.63;;;;;;;;;;5026321;28;20080;-75
2022/02/27 03:01:39;;;;;;;7.32;1.20;;;;;;;;;;5019372;28;20059;-75
2022/02/27 03:04:06;;;;;;;0.60;0.60;;;;;;;;;;5020647;28;20539;-75
2022/02/27 03:06:32;;;;;;;0.30;0.30;;;;;;;;;;5019428;28;20045;-75
2022/02/27 03:08:59;;;;;;;3.35;3.05;;;;;;;;;;5024733;28;20083;-75
2022/02/27 03:11:25;;;;;;;0.30;0.30;;;;;;;;;;5019726;28;20113;-75
2022/02/27 03:13:51;;;;;;;1.55;0.68;;;;;;;;;;5028597;28;20029;-75
2022/02/27 03:16:17;;;;;;;0.40;0.40;;;;;;;;;;5024317;28;20044;-75
2022/02/27 03:18:44;;;;;;;0.70;0.70;;;;;;;;;;5016965;28;20017;-75
2022/02/27 03:21:10;;;;;;;0.88;0.88;;;;;;;;;;5022823;28;20372;-75
2022/02/27 03:23:36;;;;;;;0.98;0.65;;;;;;;;;;5018395;28;20468;-75
2022/02/27 03:26:02;;;;;;;0.88;0.75;;;;;;;;;;5024486;28;20080;-75
2022/02/27 03:28:28;;;;;;;2.20;1.77;;;;;;;;;;5021146;28;20033;-75
2022/02/27 03:30:54;;;;;;;1.33;1.00;;;;;;;;;;5026169;28;20021;-75
2022/02/27 03:33:20;;;;;;;0.90;0.90;;;;;;;;;;5015821;28;20149;-75
2022/02/27 03:35:46;;;;;;;2.33;2.13;;;;;;;;;;5026215;28;20026;-75
2022/02/27 03:38:12;;;;;;;0.95;0.80;;;;;;;;;;5028729;28;20036;-76
2022/02/27 03:40:38;;;;;;;0.50;0.50;;;;;;;;;;5017234;28;20387;-75
2022/02/27 03:43:04;;;;;;;0.20;0.20;;;;;;;;;;5023749;28;20038;-75
2022/02/27 03:45:31;;;;;;;1.33;1.23;;;;;;;;;;5027239;28;20025;-75
2022/02/27 03:47:57;;;;;;;0.43;0.43;;;;;;;;;;5016572;28;20060;-75
2022/02/27 03:50:23;;;;;;;0.20;0.20;;;;;;;;;;5015395;28;20033;-75
2022/02/27 03:52:49;;;;;;;0.35;0.35;;;;;;;;;;5023538;28;20033;-75
2022/02/27 03:55:16;;;;;;;0.20;0.20;;;;;;;;;;5021969;28;20450;-75
2022/02/27 03:57:42;;;;;;;0.15;0.15;;;;;;;;;;5026244;28;20034;-75
2022/02/27 04:00:17;;;;;;;1.50;0.77;;;;;;;;;;5019518;28;20029;-75
2022/02/27 04:02:47;;;;;;;0.20;0.20;;;;;;;;;;5016129;28;20036;-75
2022/02/27 04:05:16;;;;;;;0.20;0.20;;;;;;;;;;5015661;28;20495;-75
2022/02/27 04:07:42;;;;;;;0.47;0.47;;;;;;;;;;5024293;28;20040;-75
2022/02/27 04:10:09;;;;;;;2.05;1.75;;;;;;;;;;5020012;28;20087;-76
2022/02/27 04:12:35;;;;;;;0.45;0.45;;;;;;;;;;5026590;28;20038;-75
2022/02/27 04:15:00;;;;;;;0.73;0.60;;;;;;;;;;5019481;28;20045;-75
2022/02/27 04:17:26;;;;;;;0.85;0.85;;;;;;;;;;5019925;28;20104;-75
2022/02/27 04:19:52;;;;;;;0.25;0.25;;;;;;;;;;5020645;28;20387;-75
2022/02/27 04:22:18;;;;;;;0.30;0.30;;;;;;;;;;5020899;28;20445;-75
2022/02/27 04:24:44;;;;;;;0.35;0.35;;;;;;;;;;5015698;28;20029;-75
2022/02/27 04:27:10;;;;;;;0.65;0.65;;;;;;;;;;5023782;28;20040;-75
2022/02/27 04:29:36;;;;;;;0.85;0.75;;;;;;;;;;5019071;28;20376;-75
2022/02/27 04:32:02;;;;;;;0.50;0.47;;;;;;;;;;5029340;28;20041;-74
2022/02/27 04:34:28;;;;;;;1.00;0.95;;;;;;;;;;5029135;28;20030;-75
2022/02/27 04:36:54;;;;;;;2.15;1.50;;;;;;;;;;5026041;28;20038;-75
2022/02/27 04:39:20;;;;;;;0.60;0.60;;;;;;;;;;5021366;28;20033;-75
2022/02/27 04:41:46;;;;;;;0.50;0.32;;;;;;;;;;5021105;28;20036;-75
2022/02/27 04:44:12;;;;;;;3.65;2.25;;;;;;;;;;5016616;28;20038;-76
2022/02/27 04:46:37;;;;;;;1.17;0.73;;;;;;;;;;5025310;28;20030;-75
2022/02/27 04:49:03;;;;;;;1.42;0.95;;;;;;;;;;5024138;28;20037;-75
2022/02/27 04:51:29;;;;;;;0.45;0.45;;;;;;;;;;5027460;28;20083;-75
2022/02/27 04:53:55;;;;;;;1.08;1.08;;;;;;;;;;5019456;28;20446;-75
2022/02/27 04:56:21;;;;;;;0.63;0.63;;;;;;;;;;5026668;28;20036;-75
2022/02/27 04:58:47;;;;;;;0.30;0.30;;;;;;;;;;5028151;28;20056;-75
2022/02/27 05:01:13;;;;;;;0.28;0.28;;;;;;;;;;5028124;28;20047;-75
2022/02/27 05:03:39;;;;;;;0.20;0.20;;;;;;;;;;5019828;28;20460;-74
2022/02/27 05:06:05;;;;;;;0.38;0.38;;;;;;;;;;5028737;28;20049;-75
2022/02/27 05:08:30;;;;;;;1.00;0.68;;;;;;;;;;5016701;28;20064;-74
2022/02/27 05:10:56;;;;;;;0.40;0.40;;;;;;;;;;5027088;28;20108;-75
2022/02/27 05:13:22;;;;;;;0.30;0.30;;;;;;;;;;5018236;28;20072;-75
2022/02/27 05:15:48;;;;;;;0.60;0.60;;;;;;;;;;5026088;28;20031;-75
2022/02/27 05:18:14;;;;;;;0.20;0.20;;;;;;;;;;5025032;28;20023;-75
2022/02/27 05:20:40;;;;;;;0.40;0.40;;;;;;;;;;5022591;28;20028;-75
2022/02/27 05:23:06;;;;;;;0.50;0.50;;;;;;;;;;5028998;28;20075;-75
2022/02/27 05:25:32;;;;;;;0.38;0.38;;;;;;;;;;5014074;28;20507;-75
2022/02/27 05:27:58;;;;;;;0.65;0.63;;;;;;;;;;5027548;28;20029;-75
2022/02/27 05:30:24;;;;;;;1.35;0.80;;;;;;;;;;5028229;28;20075;-75
2022/02/27 05:32:51;;;;;;;4.95;2.38;;;;;;;;;;5027539;28;20025;-74
2022/02/27 05:35:17;;;;;;;1.13;0.85;;;;;;;;;;5026181;28;20143;-75
2022/02/27 05:37:43;;;;;;;0.40;0.40;;;;;;;;;;5027172;28;20487;-74
2022/02/27 05:40:09;;;;;;;0.45;0.30;;;;;;;;;;5028547;28;20491;-74
2022/02/27 05:42:35;;;;;;;0.55;0.55;;;;;;;;;;5024656;28;20030;-75
2022/02/27 05:45:02;;;;;;;0.70;0.70;;;;;;;;;;5021071;28;20111;-75
2022/02/27 05:47:28;;;;;;;1.15;1.10;;;;;;;;;;5030774;28;20543;-75
2022/02/27 05:49:54;;;;;;;0.95;0.95;;;;;;;;;;5027208;28;20137;-75
2022/02/27 05:52:19;;;;;;;0.38;0.38;;;;;;;;;;5028532;28;20037;-76
2022/02/27 05:54:46;;;;;;;2.15;1.80;;;;;;;;;;5026906;28;20562;-75
2022/02/27 05:57:12;;;;;;;1.35;1.25;;;;;;;;;;5023723;28;20030;-75
2022/02/27 05:59:38;;;;;;;0.40;0.40;;;;;;;;;;5019094;28;20062;-74
2022/02/27 06:02:04;;;;;;;4.13;2.88;;;;;;;;;;5028867;28;20124;-74
2022/02/27 06:04:30;;;;;;;0.20;0.20;;;;;;;;;;5024684;28;20025;-74
2022/02/27 06:06:56;;;;;;;1.92;1.75;;;;;;;;;;5020852;28;20045;-74
2022/02/27 06:09:22;;;;;;;5.60;3.17;;;;;;;;;;5015686;28;20037;-75
2022/02/27 06:11:48;;;;;;;3.17;1.67;;;;;;;;;;5015124;28;20531;-74
2022/02/27 06:14:14;;;;;;;1.23;1.13;;;;;;;;;;5021839;28;20030;-75
2022/02/27 06:16:40;;;;;;;1.00;0.95;;;;;;;;;;5023495;28;20032;-75
2022/02/27 06:19:06;;;;;;;6.78;1.80;;;;;;;;;;5022280;28;20033;-74
2022/02/27 06:21:32;;;;;;;1.73;1.63;;;;;;;;;;5014541;28;20061;-75
2022/02/27 06:23:58;;;;;;;1.10;1.10;;;;;;;;;;5025665;28;20025;-75
2022/02/27 06:26:24;;;;;;;2.08;1.90;;;;;;;;;;5023529;28;20088;-74
2022/02/27 06:28:50;;;;;;;1.00;1.00;;;;;;;;;;5025722;28;20068;-75
2022/02/27 06:31:16;;;;;;;2.13;1.00;;;;;;;;;;5026497;28;20029;-74
2022/02/27 06:33:42;;;;;;;0.43;0.43;;;;;;;;;;5017947;28;20068;-74
2022/02/27 06:36:08;;;;;;;0.20;0.20;;;;;;;;;;5025839;28;20033;-74
2022/02/27 06:38:37;;;;;;;0.10;0.10;;;;;;;;;;5021263;28;20041;-75
2022/02/27 06:41:03;;;;;;;1.23;1.13;;;;;;;;;;5020249;28;20450;-75
2022/02/27 06:43:32;;;;;;;0.80;0.77;;;;;;;;;;5021819;28;20029;-74
2022/02/27 06:45:58;;;;;;;2.03;0.85;;;;;;;;;;5028833;28;20030;-74
2022/02/27 06:48:24;;;;;;;4.05;1.85;;;;;;;;;;5017749;28;20040;-74
2022/02/27 06:50:50;;;;;;;1.75;1.65;;;;;;;;;;5024627;28;20021;-74
2022/02/27 06:53:16;;;;;;;1.10;1.10;;;;;;;;;;5016923;28;20156;-75
2022/02/27 06:55:42;;;;;;;2.08;1.20;;;;;;;;;;5024205;28;20033;-75
2022/02/27 06:58:08;;;;;;;0.75;0.52;;;;;;;;;;5026419;28;20037;-75
2022/02/27 07:00:34;;;;;;;1.85;1.25;;;;;;;;;;5024957;28;20039;-75
2022/02/27 07:03:00;;;;;;;0.65;0.65;;;;;;;;;;5021342;28;20034;-74
2022/02/27 07:05:26;;;;;;;0.30;0.30;;;;;;;;;;5029250;28;20120;-75
2022/02/27 07:07:52;;;;;;;0.75;0.75;;;;;;;;;;5022115;28;20066;-74
2022/02/27 07:10:17;;;;;;;1.65;1.02;;;;;;;;;;5020763;28;20475;-75
2022/02/27 07:12:44;;;;;;;1.05;1.05;;;;;;;;;;5018092;28;20033;-75
2022/02/27 07:15:10;;;;;;;1.65;0.75;;;;;;;;;;5018827;28;20083;-75
2022/02/27 07:17:36;;;;;;;0.75;0.75;;;;;;;;;;5021183;28;20043;-75
2022/02/27 07:20:02;;;;;;;0.20;0.20;;;;;;;;;;5021261;28;20120;-75
2022/02/27 07:22:28;;;;;;;1.10;1.05;;;;;;;;;;5030421;28;20549;-75
2022/02/27 07:24:55;;;;;;;0.20;0.20;;;;;;;;;;5027241;28;20065;-75
2022/02/27 07:27:21;;;;;;;3.80;1.10;;;;;;;;;;5025205;28;20030;-75
2022/02/27 07:29:47;;;;;;;1.63;1.40;;;;;;;;;;5023240;28;20026;-75
2022/02/27 07:32:14;;;;;;;1.27;1.17;;;;;;;;;;5019656;28;20036;-75
2022/02/27 07:34:43;;;;;;;0.65;0.65;;;;;;;;;;5020394;28;20084;-75
2022/02/27 07:37:09;;;;;;;1.30;1.00;;;;;;;;;;5026582;28;20132;-75
2022/02/27 07:39:35;;;;;;;0.35;0.35;;;;;;;;;;5019149;28;20531;-75
2022/02/27 07:42:01;;;;;;;9.40;1.55;;;;;;;;;;5020565;28;20128;-75
2022/02/27 07:44:28;;;;;;;1.13;1.13;;;;;;;;;;5026418;28;20112;-75
2022/02/27 07:46:54;;;;;;;0.40;0.40;;;;;;;;;;5023505;28;20053;-75
2022/02/27 07:49:20;;;;;;;1.75;1.50;;;;;;;;;;5022874;28;20053;-75
2022/02/27 07:51:46;;;;;;;2.65;2.05;;;;;;;;;;5020912;28;20609;-75
2022/02/27 07:54:12;;;;;;;2.08;1.73;;;;;;;;;;5028100;28;20064;-75
2022/02/27 07:56:38;;;;;;;1.05;1.02;;;;;;;;;;5026480;28;20036;-75
2022/02/27 07:59:04;;;;;;;3.30;2.17;;;;;;;;;;5026939;28;20022;-76
2022/02/27 08:01:30;;;;;;;0.50;0.50;;;;;;;;;;5026163;28;20587;-75
2022/02/27 08:03:57;;;;;;;0.52;0.52;;;;;;;;;;5017924;28;20104;-75
2022/02/27 08:06:22;;;;;;;1.90;0.82;;;;;;;;;;5025708;28;20095;-75
2022/02/27 08:08:48;;;;;;;0.55;0.35;;;;;;;;;;5031884;28;20108;-75
2022/02/27 08:11:14;;;;;;;1.15;1.15;;;;;;;;;;5027792;28;20038;-75
2022/02/27 08:13:40;;;;;;;0.60;0.60;;;;;;;;;;5030295;28;20029;-75
2022/02/27 08:16:06;;;;;;;0.57;0.57;;;;;;;;;;5037087;28;20035;-75
2022/02/27 08:18:33;;;;;;;0.10;0.10;;;;;;;;;;5020893;28;20029;-75
2022/02/27 08:20:59;;;;;;;0.55;0.55;;;;;;;;;;5022716;28;20059;-74
2022/02/27 08:23:25;;;;;;;1.20;0.63;;;;;;;;;;5018372;28;20029;-76
2022/02/27 08:25:54;;;;;;;1.60;0.90;;;;;;;;;;5027158;28;20084;-74
2022/02/27 08:28:21;;;;;;;0.10;0.10;;;;;;;;;;5021223;28;20018;-74
2022/02/27 08:30:47;;;;;;;2.88;1.95;;;;;;;;;;5023963;28;20025;-75
2022/02/27 08:33:13;;;;;;;0.82;0.35;;;;;;;;;;5030974;28;20029;-75
2022/02/27 08:35:39;;;;;;;3.30;1.50;;;;;;;;;;5025468;28;20037;-75
2022/02/27 08:38:05;;;;;;;1.38;1.27;;;;;;;;;;5021336;28;20472;-75
2022/02/27 08:40:31;;;;;;;1.27;0.88;;;;;;;;;;5018540;28;20034;-75
2022/02/27 08:42:58;;;;;;;0.73;0.73;;;;;;;;;;5025707;28;20039;-74
2022/02/27 08:45:24;;;;;;;1.45;1.10;;;;;;;;;;5020424;28;20013;-74
2022/02/27 08:47:51;;;;;;;1.00;1.00;;;;;;;;;;5020064;28;20029;-73
2022/02/27 08:50:17;;;;;;;0.98;0.98;;;;;;;;;;5027295;28;20712;-73
2022/02/27 08:52:43;;;;;;;0.80;0.80;;;;;;;;;;5023374;28;20048;-73
2022/02/27 08:55:09;;;;;;;0.35;0.35;;;;;;;;;;5022643;28;20037;-73
2022/02/27 08:57:35;;;;;;;0.40;0.40;;;;;;;;;;5022631;28;20049;-73
2022/02/27 09:00:01;;;;;;;1.05;1.02;;;;;;;;;;5019747;28;20068;-73
2022/02/27 09:02:27;;;;;;;3.63;1.55;;;;;;;;;;5016163;28;20464;-73
2022/02/27 09:04:53;;;;;;;1.13;1.02;;;;;;;;;;5027057;28;20108;-73
2022/02/27 09:07:19;;;;;;;2.33;1.35;;;;;;;;;;5026702;28;20042;-73
2022/02/27 09:09:45;;;;;;;1.05;1.05;;;;;;;;;;5026447;28;20678;-74
2022/02/27 09:12:11;;;;;;;0.50;0.50;;;;;;;;;;5017360;28;20053;-74
2022/02/27 09:14:38;;;;;;;1.02;0.98;;;;;;;;;;5028730;28;20411;-74
2022/02/27 09:17:04;;;;;;;0.95;0.88;;;;;;;;;;5025898;28;20037;-75
2022/02/27 09:19:30;;;;;;;0.43;0.43;;;;;;;;;;5030414;28;20033;-74
2022/02/27 09:21:56;;;;;;;1.30;0.80;;;;;;;;;;5022070;28;20399;-74
2022/02/27 09:24:23;;;;;;;0.30;0.30;;;;;;;;;;5020920;28;20063;-74
2022/02/27 09:26:49;;;;;;;0.77;0.55;;;;;;;;;;5016273;28;20494;-74
2022/02/27 09:29:15;;;;;;;0.63;0.63;;;;;;;;;;5023060;28;20025;-74
2022/02/27 09:31:41;;;;;;;1.25;1.15;;;;;;;;;;5015550;28;20018;-73
2022/02/27 09:34:07;;;;;;;0.20;0.20;;;;;;;;;;5019737;28;20499;-75
2022/02/27 09:36:33;;;;;;;0.22;0.22;;;;;;;;;;5023504;28;20112;-74
2022/02/27 09:39:00;;;;;;;0.20;0.20;;;;;;;;;;5018725;28;20052;-74
2022/02/27 09:41:25;;;;;;;0.38;0.38;;;;;;;;;;5017839;28;20490;-74
2022/02/27 09:44:30;;;;;;;0.63;0.63;;;;;;;;;;5025034;28;20029;-73
2022/02/27 09:47:19;;;;;;;1.80;1.00;;;;;;;;;;5020546;28;20044;-73
2022/02/27 09:49:48;;;;;;;0.52;0.52;;;;;;;;;;5016623;28;20523;-73
2022/02/27 09:52:14;;;;;;;0.57;0.57;;;;;;;;;;5020811;28;20117;-74
2022/02/27 09:54:40;;;;;;;1.17;0.50;;;;;;;;;;5019833;28;20396;-72
2022/02/27 09:57:07;;;;;;;3.10;0.90;;;;;;;;;;5016846;28;20072;-73
2022/02/27 09:59:32;;;;;;;1.35;0.55;;;;;;;;;;5023229;28;20030;-71
2022/02/27 10:02:00;;;;;;;2.28;1.27;;;;;;;;;;5019678;28;20040;-71
2022/02/27 10:04:26;;;;;;;0.75;0.75;;;;;;;;;;5014212;28;20116;-73
2022/02/27 10:06:52;;;;;;;0.52;0.52;;;;;;;;;;5022969;28;20176;-72
2022/02/27 10:09:23;;;;;;;0.73;0.73;;;;;;;;;;5025644;28;20546;-70
2022/02/27 10:11:49;;;;;;;1.95;1.02;;;;;;;;;;5024231;28;20037;-71
2022/02/27 10:14:24;;;;;;;3.15;1.15;;;;;;;;;;5025835;28;20041;-72
2022/02/27 10:16:50;;;;;;;0.43;0.43;;;;;;;;;;5025813;28;20040;-75
2022/02/27 10:19:17;;;;;;;5.93;1.77;;;;;;;;;;5022786;28;20095;-73
2022/02/27 10:21:45;;;;;;;0.40;0.40;;;;;;;;;;5025175;28;20038;-73
2022/02/27 10:24:12;;;;;;;0.45;0.45;;;;;;;;;;5026115;28;20099;-75
2022/02/27 10:26:39;;;;;;;5.03;1.55;;;;;;;;;;5023568;28;20037;-72
2022/02/27 10:29:22;;;;;;;1.48;1.30;;;;;;;;;;5025726;28;20117;-73
2022/02/27 10:31:52;;;;;;;0.82;0.77;;;;;;;;;;5027785;28;20061;-73
2022/02/27 10:34:20;;;;;;;2.47;1.35;;;;;;;;;;5025177;28;20499;-80
2022/02/27 10:37:06;;;;;;;0.55;0.55;;;;;;;;;;5026534;28;20667;-73
2022/02/27 10:39:33;;;;;;;4.22;2.75;;;;;;;;;;5026273;28;20022;-73
2022/02/27 10:42:06;;;;;;;11.15;0.75;;;;;;;;;;5023357;28;20052;-74
2022/02/27 10:44:32;;;;;;;0.40;0.40;;;;;;;;;;5021718;28;20399;-74
2022/02/27 10:47:11;;;;;;;0.55;0.55;;;;;;;;;;5025403;28;20036;-75
2022/02/27 10:49:37;;;;;;;1.33;1.25;;;;;;;;;;5024071;28;20037;-75
2022/02/27 10:52:09;;;;;;;0.28;0.28;;;;;;;;;;5025283;28;20026;-75
2022/02/27 10:54:42;;;;;;;0.75;0.75;;;;;;;;;;5025432;28;20499;-76
2022/02/27 10:57:11;;;;;;;3.75;1.27;;;;;;;;;;5024968;28;20029;-76
2022/02/27 10:59:40;;;;;;;0.80;0.47;;;;;;;;;;5022578;28;20083;-75
2022/02/27 11:02:09;;;;;;;1.05;0.93;;;;;;;;;;5024135;28;20391;-75
2022/02/27 11:04:36;;;;;;;1.38;1.17;;;;;;;;;;5024761;28;20431;-76
2022/02/27 11:07:08;;;;;;;1.10;1.08;;;;;;;;;;5025691;28;20041;-77
2022/02/27 11:09:34;;;;;;;1.65;1.42;;;;;;;;;;5016130;28;20067;-77
2022/02/27 11:12:01;;;;;;;0.60;0.60;;;;;;;;;;5025613;28;20112;-77
2022/02/27 11:14:28;;;;;;;1.42;1.33;;;;;;;;;;5020028;28;20032;-77
2022/02/27 11:17:15;;;;;;;0.45;0.45;;;;;;;;;;5028335;28;20029;-77
2022/02/27 11:19:40;;;;;;;1.52;1.40;;;;;;;;;;5010896;28;20084;-76
2022/02/27 11:22:07;;;;;;;2.40;2.05;;;;;;;;;;5014970;28;20548;-77
2022/02/27 11:24:33;;;;;;;2.92;2.08;;;;;;;;;;5025008;28;20053;-77
2022/02/27 11:26:59;;;;;;;2.20;1.20;;;;;;;;;;5026512;28;20040;-76
2022/02/27 11:29:25;;;;;;;1.33;0.85;;;;;;;;;;5017973;28;20385;-77
2022/02/27 11:31:51;;;;;;;1.33;1.25;;;;;;;;;;5018536;28;20035;-77
2022/02/27 11:34:19;;;;;;;1.55;0.75;;;;;;;;;;5023086;28;20495;-77
2022/02/27 11:36:51;;;;;;;0.45;0.45;;;;;;;;;;5026734;28;20507;-77
2022/02/27 11:42:01;;;;;;;2.63;1.80;;;;;;;;;;5016743;28;20041;-78
2022/02/27 11:44:32;;;;;;;1.75;0.85;;;;;;;;;;5014907;28;20045;-78
2022/02/27 11:47:04;;;;;;;1.08;1.08;;;;;;;;;;5014654;28;20111;-77
2022/02/27 11:49:30;;;;;;;0.68;0.52;;;;;;;;;;5021745;28;20112;-81
2022/02/27 11:52:01;;;;;;;1.02;1.02;;;;;;;;;;5026554;28;20108;-78
2022/02/27 11:54:47;;;;;;;3.17;0.97;;;;;;;;;;5026011;28;20029;-79
2022/02/27 11:57:17;;;;;;;1.98;1.77;;;;;;;;;;5009321;28;20304;-77
2022/02/27 11:59:51;;;;;;;0.57;0.57;;;;;;;;;;5019652;28;20060;-77
2022/02/27 12:02:36;;;;;;;0.95;0.95;;;;;;;;;;5015073;28;20038;-77
2022/02/27 12:05:04;;;;;;;0.50;0.50;;;;;;;;;;5022221;28;20026;-77
2022/02/27 12:07:29;;;;;;;0.90;0.90;;;;;;;;;;5024171;28;20061;-78
2022/02/27 12:09:57;;;;;;;1.50;1.40;;;;;;;;;;5026374;28;20030;-77
2022/02/27 12:12:36;;;;;;;1.15;1.05;;;;;;;;;;5023729;28;20029;-77
2022/02/27 12:15:18;;;;;;;2.67;0.63;;;;;;;;;;5025033;28;20033;-77
2022/02/27 12:18:04;;;;;;;2.03;0.95;;;;;;;;;;5026640;28;20021;-77
2022/02/27 12:20:46;;;;;;;1.02;0.93;;;;;;;;;;5026857;28;20513;-78
2022/02/27 12:23:35;;;;;;;2.72;1.52;;;;;;;;;;5023590;28;20096;-77
2022/02/27 12:26:20;;;;;;;6.35;0.93;;;;;;;;;;5020462;28;20251;-77
2022/02/27 12:28:52;;;;;;;1.15;0.73;;;;;;;;;;5023110;28;20033;-77
2022/02/27 12:31:18;;;;;;;1.08;1.08;;;;;;;;;;5022748;28;20025;-77
2022/02/27 12:33:44;;;;;;;3.20;1.95;;;;;;;;;;5026607;28;20028;-77
2022/02/27 12:36:10;;;;;;;0.40;0.40;;;;;;;;;;5024225;28;20562;-78
2022/02/27 12:38:36;;;;;;;0.32;0.32;;;;;;;;;;5024682;28;20109;-77
2022/02/27 12:41:03;;;;;;;1.17;1.08;;;;;;;;;;5024281;28;20069;-77
2022/02/27 12:43:33;;;;;;;2.85;1.35;;;;;;;;;;5020430;28;20699;-77
2022/02/27 12:45:59;;;;;;;1.20;1.15;;;;;;;;;;5024121;28;20480;-78
2022/02/27 12:51:17;;;;;;;1.02;1.02;;;;;;;;;;4995585;28;20489;-77
2022/02/27 12:53:44;;;;;;;1.40;0.70;;;;;;;;;;5029179;28;20033;-77
2022/02/27 12:56:11;;;;;;;0.80;0.68;;;;;;;;;;5025952;28;20032;-77
2022/02/27 12:58:43;;;;;;;0.35;0.35;;;;;;;;;;5027696;28;20033;-77
2022/02/27 13:01:09;;;;;;;2.55;1.17;;;;;;;;;;5011411;28;20526;-77
2022/02/27 13:03:35;;;;;;;1.80;1.08;;;;;;;;;;5030340;28;20033;-77
2022/02/27 13:06:21;;;;;;;6.70;1.40;;;;;;;;;;5028169;28;20174;-78
2022/02/27 13:08:50;;;;;;;0.32;0.32;;;;;;;;;;5026223;28;20056;-76
2022/02/27 13:11:36;;;;;;;4.22;2.17;;;;;;;;;;5026758;28;20021;-77
2022/02/27 13:14:05;;;;;;;2.03;1.83;;;;;;;;;;5027539;28;20040;-77
2022/02/27 13:16:32;;;;;;;0.35;0.35;;;;;;;;;;5028665;28;20029;-76
2022/02/27 13:18:58;;;;;;;3.03;2.30;;;;;;;;;;5027747;28;20033;-77
2022/02/27 13:21:24;;;;;;;0.88;0.88;;;;;;;;;;5026589;28;20043;-77
2022/02/27 13:24:03;;;;;;;1.02;0.57;;;;;;;;;;5029732;28;20052;-77
2022/02/27 13:26:30;;;;;;;1.05;1.05;;;;;;;;;;5027385;28;20036;-76
2022/02/27 13:28:57;;;;;;;1.73;1.52;;;;;;;;;;5028359;28;20033;-77
2022/02/27 13:31:24;;;;;;;2.30;1.58;;;;;;;;;;5027671;28;20083;-77
2022/02/27 13:33:51;;;;;;;0.85;0.85;;;;;;;;;;5027053;28;20042;-77
2022/02/27 13:36:18;;;;;;;1.40;1.13;;;;;;;;;;5028410;28;20033;-77
2022/02/27 13:38:47;;;;;;;0.95;0.80;;;;;;;;;;5028783;28;20507;-76
2022/02/27 13:41:12;;;;;;;0.20;0.20;;;;;;;;;;5028927;28;20033;-77
2022/02/27 13:43:39;;;;;;;1.20;1.20;;;;;;;;;;5029417;28;20036;-77
2022/02/27 13:46:06;;;;;;;1.10;1.00;;;;;;;;;;5028094;28;20096;-77
2022/02/27 13:48:33;;;;;;;4.63;0.70;;;;;;;;;;5026815;28;20108;-77
2022/02/27 13:51:00;;;;;;;1.13;1.08;;;;;;;;;;5027578;28;20036;-77
2022/02/27 13:53:30;;;;;;;1.33;1.25;;;;;;;;;;5026326;28;20036;-77
2022/02/27 13:56:07;;;;;;;0.73;0.73;;;;;;;;;;5027756;28;20485;-73
2022/02/27 13:58:33;;;;;;;1.67;1.58;;;;;;;;;;5027260;28;20500;-73
2022/02/27 14:01:00;;;;;;;0.90;0.90;;;;;;;;;;5027841;28;20056;-73
2022/02/27 14:03:36;;;;;;;0.63;0.63;;;;;;;;;;5026783;28;20030;-73
2022/02/27 14:06:03;;;;;;;0.95;0.60;;;;;;;;;;5026814;28;20120;-73
2022/02/27 14:08:30;;;;;;;0.70;0.57;;;;;;;;;;5026886;28;20025;-73
2022/02/27 14:11:16;;;;;;;1.65;1.27;;;;;;;;;;5025778;28;20534;-73
2022/02/27 14:13:50;;;;;;;1.30;0.38;;;;;;;;;;5029259;28;20056;-73
2022/02/27 14:16:29;;;;;;;5.28;1.27;;;;;;;;;;5026428;28;20026;-74
2022/02/27 14:18:56;;;;;;;2.33;1.33;;;;;;;;;;5026863;28;20067;-73
2022/02/27 14:21:25;;;;;;;0.52;0.40;;;;;;;;;;5026251;28;20037;-72
2022/02/27 14:23:52;;;;;;;0.00;0.00;;;;;;;;;;5026853;28;20033;-81
2022/02/27 14:26:18;;;;;;;0.43;0.43;;;;;;;;;;5017903;28;20041;-74
2022/02/27 14:28:50;;;;;;;0.40;0.40;;;;;;;;;;5022138;28;20128;-74
2022/02/27 14:31:17;;;;;;;6.63;1.95;;;;;;;;;;5021079;28;20048;-74
2022/02/27 14:33:43;;;;;;;2.60;1.05;;;;;;;;;;5017749;28;20109;-74
2022/02/27 14:36:09;;;;;;;0.47;0.32;;;;;;;;;;5019254;28;20076;-73
2022/02/27 14:38:36;;;;;;;1.17;1.17;;;;;;;;;;5017069;28;20025;-75
2022/02/27 14:41:02;;;;;;;1.85;0.65;;;;;;;;;;5020051;28;20021;-75
2022/02/27 14:43:28;;;;;;;4.10;3.22;;;;;;;;;;5021177;28;20041;-74
2022/02/27 14:45:54;;;;;;;2.30;2.10;;;;;;;;;;5024420;28;20569;-73
2022/02/27 14:48:21;;;;;;;2.70;1.13;;;;;;;;;;5021293;28;20037;-74
2022/02/27 14:50:47;;;;;;;1.02;1.02;;;;;;;;;;5023791;28;20033;-74
2022/02/27 14:53:13;;;;;;;1.35;1.17;;;;;;;;;;5024693;28;20083;-77
2022/02/27 14:55:39;;;;;;;1.75;1.65;;;;;;;;;;5027240;28;20033;-77